Acme, LA

12:49 AM CDT on September 04, 2015 (GMT -0500)
Hamburg community | | Change Station
CLOSE
Current Station
Personal Weather Station
Location: Moreauville, LA
Elevation: 75 ft
Nearby Weather Stations

Elev 75 ft 31.03 °N, 91.93 °W | Updated 12 minutes ago

Clear
Clear
73.2 °F
Feels Like 73.2 °F
N
0.0
Wind Variable Wind from SSW

Today
High -- | Low -- °F
--% Chance of Precip.
Yesterday
High -- | Low -- °F
Precip. -- in
6:44 AM 7:27 PM
Waning Gibbous, 63% visible
Pressure 29.92 in
Visibility 10.0 miles
Clouds Clear
Dew Point 72 °F
Humidity 97%
Rainfall 0.00 in
Snow Depth Not available.
UV 0 out of 12
Pollen 7.90 out of 12
Air Quality Not available.
Flu Activity Not available.
METAR KESF 040453Z AUTO 00000KT 10SM CLR 24/22 A2993 RMK AO2 SLP132 T02440222
Pressure 29.92 in
Visibility 10.0 miles
Clouds Clear
Dew Point 72 °F
Humidity 97%
Rainfall 0.00 in
Snow Depth Not available.
UV 0 out of 12
Pollen 7.90 out of 12
Air Quality Not available.
Flu Activity Not available.
METAR KESF 040453Z AUTO 00000KT 10SM CLR 24/22 A2993 RMK AO2 SLP132 T02440222

10-Day Weather Forecast

×

Almanac

Astronomy

Sep. 04, 2015 Rise Set
Actual Time
Civil Twilight
Nautical Twilight
Astronomical Twilight
Moon
Length of Visible Light
Length of Day
Tomorrow will be .
, % of the Moon is Illuminated

Today's Extremes

State Highs State Lows

Community

WunderPhotos

Upload Photos

1,852,129 photos uploaded!

WunderBlogs® & News

Nearby

Air Quality

  Air Quality AQ Index Pollutant
Not available.

Snow Depth

Station Depth Elevation

Earthquake Activity

City Distance Mag. Time & Date
Minimum magnitude displayed is 2.5.

Coastal Water Temperatures

Place Temperature

Stations

Nearby Weather Stations

Station Location Temp. Windchill Dew Point Humidity Wind Precip. Elev Updated Type